sensor_id;sensor_type;location;lat;lon;timestamp;P1;durP1;ratioP1;P2;durP2;ratioP2
9819;SDS011;4949;48.482;9.206;2023-02-15T00:01:59;20.03;;;17.40;;
9819;SDS011;4949;48.482;9.206;2023-02-15T00:07:01;18.73;;;15.57;;
9819;SDS011;4949;48.482;9.206;2023-02-15T00:12:02;22.40;;;16.40;;
9819;SDS011;4949;48.482;9.206;2023-02-15T00:17:05;21.07;;;18.67;;
9819;SDS011;4949;48.482;9.206;2023-02-15T00:22:08;22.93;;;16.97;;
9819;SDS011;4949;48.482;9.206;2023-02-15T00:27:09;22.63;;;17.47;;
9819;SDS011;4949;48.482;9.206;2023-02-15T00:32:09;18.90;;;16.90;;
9819;SDS011;4949;48.482;9.206;2023-02-15T00:37:15;27.17;;;19.13;;
9819;SDS011;4949;48.482;9.206;2023-02-15T00:42:16;25.03;;;19.30;;
9819;SDS011;4949;48.482;9.206;2023-02-15T00:47:16;20.13;;;16.70;;
9819;SDS011;4949;48.482;9.206;2023-02-15T00:52:19;21.67;;;17.10;;
9819;SDS011;4949;48.482;9.206;2023-02-15T00:57:20;19.17;;;15.50;;
9819;SDS011;4949;48.482;9.206;2023-02-15T01:02:25;21.10;;;15.40;;
9819;SDS011;4949;48.482;9.206;2023-02-15T01:07:28;20.00;;;16.03;;
9819;SDS011;4949;48.482;9.206;2023-02-15T01:12:29;22.53;;;15.83;;
9819;SDS011;4949;48.482;9.206;2023-02-15T01:17:32;19.17;;;14.07;;
9819;SDS011;4949;48.482;9.206;2023-02-15T01:22:33;22.10;;;16.60;;
9819;SDS011;4949;48.482;9.206;2023-02-15T01:27:34;20.60;;;15.87;;
9819;SDS011;4949;48.482;9.206;2023-02-15T01:32:37;21.43;;;16.33;;
9819;SDS011;4949;48.482;9.206;2023-02-15T01:37:38;24.73;;;16.97;;
9819;SDS011;4949;48.482;9.206;2023-02-15T01:42:38;23.37;;;16.20;;
9819;SDS011;4949;48.482;9.206;2023-02-15T01:53:16;23.90;;;15.53;;
9819;SDS011;4949;48.482;9.206;2023-02-15T01:58:22;20.30;;;16.27;;
9819;SDS011;4949;48.482;9.206;2023-02-15T02:09:09;21.10;;;16.80;;
9819;SDS011;4949;48.482;9.206;2023-02-15T02:14:12;19.00;;;15.33;;
9819;SDS011;4949;48.482;9.206;2023-02-15T02:30:13;18.43;;;16.50;;
9819;SDS011;4949;48.482;9.206;2023-02-15T02:46:53;17.67;;;15.73;;
9819;SDS011;4949;48.482;9.206;2023-02-15T02:57:38;20.27;;;16.60;;
9819;SDS011;4949;48.482;9.206;2023-02-15T03:02:45;19.33;;;15.77;;
9819;SDS011;4949;48.482;9.206;2023-02-15T03:07:51;21.47;;;15.63;;
9819;SDS011;4949;48.482;9.206;2023-02-15T03:12:53;23.67;;;16.40;;
9819;SDS011;4949;48.482;9.206;2023-02-15T03:17:57;20.07;;;15.23;;
9819;SDS011;4949;48.482;9.206;2023-02-15T03:23:13;18.87;;;14.73;;
9819;SDS011;4949;48.482;9.206;2023-02-15T03:28:22;22.43;;;16.40;;
9819;SDS011;4949;48.482;9.206;2023-02-15T03:33:40;16.47;;;14.00;;
9819;SDS011;4949;48.482;9.206;2023-02-15T03:39:26;22.00;;;16.50;;
9819;SDS011;4949;48.482;9.206;2023-02-15T03:44:33;18.30;;;14.17;;
9819;SDS011;4949;48.482;9.206;2023-02-15T03:49:57;19.77;;;15.23;;
9819;SDS011;4949;48.482;9.206;2023-02-15T03:55:25;18.63;;;15.40;;
9819;SDS011;4949;48.482;9.206;2023-02-15T04:00:26;18.03;;;14.43;;
9819;SDS011;4949;48.482;9.206;2023-02-15T04:05:45;17.27;;;14.23;;
9819;SDS011;4949;48.482;9.206;2023-02-15T04:10:46;17.50;;;13.33;;
9819;SDS011;4949;48.482;9.206;2023-02-15T04:15:53;19.63;;;14.63;;
9819;SDS011;4949;48.482;9.206;2023-02-15T04:21:12;18.80;;;14.50;;
9819;SDS011;4949;48.482;9.206;2023-02-15T04:26:31;18.50;;;13.23;;
9819;SDS011;4949;48.482;9.206;2023-02-15T04:31:32;14.43;;;11.87;;
9819;SDS011;4949;48.482;9.206;2023-02-15T04:36:32;18.03;;;13.73;;
9819;SDS011;4949;48.482;9.206;2023-02-15T04:41:41;21.97;;;13.77;;
9819;SDS011;4949;48.482;9.206;2023-02-15T04:46:41;17.30;;;12.60;;
9819;SDS011;4949;48.482;9.206;2023-02-15T04:51:48;16.83;;;12.23;;
9819;SDS011;4949;48.482;9.206;2023-02-15T04:56:51;16.43;;;13.70;;
9819;SDS011;4949;48.482;9.206;2023-02-15T05:01:54;17.37;;;13.13;;
9819;SDS011;4949;48.482;9.206;2023-02-15T05:06:57;16.50;;;12.60;;
9819;SDS011;4949;48.482;9.206;2023-02-15T05:11:58;18.33;;;14.27;;
9819;SDS011;4949;48.482;9.206;2023-02-15T05:16:59;18.10;;;13.10;;
9819;SDS011;4949;48.482;9.206;2023-02-15T05:22:01;18.87;;;14.23;;
9819;SDS011;4949;48.482;9.206;2023-02-15T05:27:02;16.87;;;12.77;;
9819;SDS011;4949;48.482;9.206;2023-02-15T05:32:21;14.93;;;13.27;;
9819;SDS011;4949;48.482;9.206;2023-02-15T05:37:24;14.80;;;11.90;;
9819;SDS011;4949;48.482;9.206;2023-02-15T05:42:25;17.80;;;13.73;;
9819;SDS011;4949;48.482;9.206;2023-02-15T05:47:25;15.90;;;12.27;;
9819;SDS011;4949;48.482;9.206;2023-02-15T05:52:27;15.63;;;12.20;;
9819;SDS011;4949;48.482;9.206;2023-02-15T05:57:28;17.23;;;13.03;;
9819;SDS011;4949;48.482;9.206;2023-02-15T06:02:29;17.60;;;13.10;;
9819;SDS011;4949;48.482;9.206;2023-02-15T06:07:34;18.83;;;14.37;;
9819;SDS011;4949;48.482;9.206;2023-02-15T06:12:37;19.20;;;13.60;;
9819;SDS011;4949;48.482;9.206;2023-02-15T06:17:41;17.43;;;12.37;;
9819;SDS011;4949;48.482;9.206;2023-02-15T06:22:51;18.53;;;12.73;;
9819;SDS011;4949;48.482;9.206;2023-02-15T06:27:52;21.13;;;15.37;;
9819;SDS011;4949;48.482;9.206;2023-02-15T06:32:55;18.90;;;14.07;;
9819;SDS011;4949;48.482;9.206;2023-02-15T06:37:56;21.07;;;14.43;;
9819;SDS011;4949;48.482;9.206;2023-02-15T06:42:56;21.27;;;14.80;;
9819;SDS011;4949;48.482;9.206;2023-02-15T06:47:57;19.50;;;13.70;;
9819;SDS011;4949;48.482;9.206;2023-02-15T06:52:58;19.47;;;13.53;;
9819;SDS011;4949;48.482;9.206;2023-02-15T06:58:04;17.10;;;13.20;;
9819;SDS011;4949;48.482;9.206;2023-02-15T07:03:05;18.10;;;13.40;;
9819;SDS011;4949;48.482;9.206;2023-02-15T07:08:05;16.90;;;13.30;;
9819;SDS011;4949;48.482;9.206;2023-02-15T07:13:06;20.10;;;13.90;;
9819;SDS011;4949;48.482;9.206;2023-02-15T07:18:12;18.07;;;13.37;;
9819;SDS011;4949;48.482;9.206;2023-02-15T07:23:14;21.40;;;15.13;;
9819;SDS011;4949;48.482;9.206;2023-02-15T07:28:14;18.90;;;14.13;;
9819;SDS011;4949;48.482;9.206;2023-02-15T07:33:16;19.90;;;13.83;;
9819;SDS011;4949;48.482;9.206;2023-02-15T07:38:23;20.57;;;15.17;;
9819;SDS011;4949;48.482;9.206;2023-02-15T07:43:25;16.40;;;14.37;;
9819;SDS011;4949;48.482;9.206;2023-02-15T07:48:27;21.40;;;16.00;;
9819;SDS011;4949;48.482;9.206;2023-02-15T07:53:30;21.03;;;15.40;;
9819;SDS011;4949;48.482;9.206;2023-02-15T07:58:34;21.93;;;15.70;;
9819;SDS011;4949;48.482;9.206;2023-02-15T08:03:55;17.60;;;14.50;;
9819;SDS011;4949;48.482;9.206;2023-02-15T08:08:57;20.87;;;15.90;;
9819;SDS011;4949;48.482;9.206;2023-02-15T08:14:07;18.83;;;15.53;;
9819;SDS011;4949;48.482;9.206;2023-02-15T08:24:18;21.17;;;16.50;;
9819;SDS011;4949;48.482;9.206;2023-02-15T08:29:22;19.33;;;15.50;;
9819;SDS011;4949;48.482;9.206;2023-02-15T08:34:28;20.90;;;15.63;;
9819;SDS011;4949;48.482;9.206;2023-02-15T08:39:31;22.40;;;16.23;;
9819;SDS011;4949;48.482;9.206;2023-02-15T08:44:32;18.40;;;15.73;;
9819;SDS011;4949;48.482;9.206;2023-02-15T08:49:35;22.03;;;16.33;;
9819;SDS011;4949;48.482;9.206;2023-02-15T08:54:36;17.33;;;14.90;;
9819;SDS011;4949;48.482;9.206;2023-02-15T08:59:37;18.80;;;15.13;;
9819;SDS011;4949;48.482;9.206;2023-02-15T09:04:40;16.50;;;13.20;;
9819;SDS011;4949;48.482;9.206;2023-02-15T09:09:41;15.57;;;11.57;;
9819;SDS011;4949;48.482;9.206;2023-02-15T09:14:47;14.40;;;12.40;;
9819;SDS011;4949;48.482;9.206;2023-02-15T09:19:48;14.90;;;11.00;;
9819;SDS011;4949;48.482;9.206;2023-02-15T09:24:52;13.37;;;10.93;;
9819;SDS011;4949;48.482;9.206;2023-02-15T09:29:58;14.60;;;11.43;;
9819;SDS011;4949;48.482;9.206;2023-02-15T09:34:59;16.10;;;12.90;;
9819;SDS011;4949;48.482;9.206;2023-02-15T09:40:00;13.97;;;11.13;;
9819;SDS011;4949;48.482;9.206;2023-02-15T10:28:17;12.30;;;9.87;;
9819;SDS011;4949;48.482;9.206;2023-02-15T10:33:27;11.30;;;10.10;;
9819;SDS011;4949;48.482;9.206;2023-02-15T10:49:40;10.83;;;9.53;;
9819;SDS011;4949;48.482;9.206;2023-02-15T10:55:59;17.07;;;12.27;;
9819;SDS011;4949;48.482;9.206;2023-02-15T11:06:41;14.50;;;12.40;;
9819;SDS011;4949;48.482;9.206;2023-02-15T11:11:52;16.87;;;12.47;;
9819;SDS011;4949;48.482;9.206;2023-02-15T11:16:57;13.43;;;12.03;;
9819;SDS011;4949;48.482;9.206;2023-02-15T11:22:09;19.50;;;13.03;;
9819;SDS011;4949;48.482;9.206;2023-02-15T11:32:21;15.30;;;12.90;;
9819;SDS011;4949;48.482;9.206;2023-02-15T11:37:42;13.43;;;12.03;;
9819;SDS011;4949;48.482;9.206;2023-02-15T11:42:53;14.30;;;12.87;;
9819;SDS011;4949;48.482;9.206;2023-02-15T11:48:00;19.70;;;12.80;;
9819;SDS011;4949;48.482;9.206;2023-02-15T11:53:20;17.00;;;13.40;;
9819;SDS011;4949;48.482;9.206;2023-02-15T11:58:39;15.63;;;12.10;;
9819;SDS011;4949;48.482;9.206;2023-02-15T12:04:15;15.60;;;10.93;;
9819;SDS011;4949;48.482;9.206;2023-02-15T12:14:49;12.63;;;10.97;;
9819;SDS011;4949;48.482;9.206;2023-02-15T12:19:55;13.20;;;10.77;;
9819;SDS011;4949;48.482;9.206;2023-02-15T12:25:01;15.63;;;12.30;;
9819;SDS011;4949;48.482;9.206;2023-02-15T12:30:25;13.83;;;11.67;;
9819;SDS011;4949;48.482;9.206;2023-02-15T12:35:35;13.47;;;10.83;;
9819;SDS011;4949;48.482;9.206;2023-02-15T12:40:38;15.37;;;11.00;;
9819;SDS011;4949;48.482;9.206;2023-02-15T12:45:40;10.57;;;9.53;;
9819;SDS011;4949;48.482;9.206;2023-02-15T12:50:41;10.00;;;9.13;;
9819;SDS011;4949;48.482;9.206;2023-02-15T12:55:53;11.47;;;9.47;;
9819;SDS011;4949;48.482;9.206;2023-02-15T13:01:15;11.27;;;9.77;;
9819;SDS011;4949;48.482;9.206;2023-02-15T13:06:22;12.10;;;10.87;;
9819;SDS011;4949;48.482;9.206;2023-02-15T13:11:29;13.67;;;9.67;;
9819;SDS011;4949;48.482;9.206;2023-02-15T13:16:37;9.67;;;8.70;;
9819;SDS011;4949;48.482;9.206;2023-02-15T13:21:40;8.60;;;7.70;;
9819;SDS011;4949;48.482;9.206;2023-02-15T13:26:47;9.50;;;7.90;;
9819;SDS011;4949;48.482;9.206;2023-02-15T13:31:50;8.37;;;7.60;;
9819;SDS011;4949;48.482;9.206;2023-02-15T14:04:07;8.07;;;7.33;;
9819;SDS011;4949;48.482;9.206;2023-02-15T14:26:21;9.67;;;8.70;;
9819;SDS011;4949;48.482;9.206;2023-02-15T14:31:38;13.13;;;9.03;;
9819;SDS011;4949;48.482;9.206;2023-02-15T14:36:43;9.50;;;7.70;;
9819;SDS011;4949;48.482;9.206;2023-02-15T14:41:48;9.57;;;8.67;;
9819;SDS011;4949;48.482;9.206;2023-02-15T14:52:08;11.00;;;8.37;;
9819;SDS011;4949;48.482;9.206;2023-02-15T15:02:22;9.83;;;8.87;;
9819;SDS011;4949;48.482;9.206;2023-02-15T15:07:41;9.73;;;8.73;;
9819;SDS011;4949;48.482;9.206;2023-02-15T15:12:53;9.60;;;7.03;;
9819;SDS011;4949;48.482;9.206;2023-02-15T15:50:21;6.30;;;5.03;;
9819;SDS011;4949;48.482;9.206;2023-02-15T15:55:30;6.03;;;4.63;;
9819;SDS011;4949;48.482;9.206;2023-02-15T16:01:09;5.00;;;4.47;;
9819;SDS011;4949;48.482;9.206;2023-02-15T16:06:13;6.70;;;6.07;;
9819;SDS011;4949;48.482;9.206;2023-02-15T16:11:35;6.57;;;5.90;;
9819;SDS011;4949;48.482;9.206;2023-02-15T16:16:39;7.40;;;5.63;;
9819;SDS011;4949;48.482;9.206;2023-02-15T16:21:43;7.10;;;6.40;;
9819;SDS011;4949;48.482;9.206;2023-02-15T16:32:06;7.70;;;6.90;;
9819;SDS011;4949;48.482;9.206;2023-02-15T16:37:20;6.77;;;5.97;;
9819;SDS011;4949;48.482;9.206;2023-02-15T16:42:27;7.03;;;5.60;;
9819;SDS011;4949;48.482;9.206;2023-02-15T16:47:28;8.23;;;6.80;;
9819;SDS011;4949;48.482;9.206;2023-02-15T16:52:36;6.47;;;5.80;;
9819;SDS011;4949;48.482;9.206;2023-02-15T16:57:40;6.87;;;5.20;;
9819;SDS011;4949;48.482;9.206;2023-02-15T17:02:52;6.50;;;5.87;;
9819;SDS011;4949;48.482;9.206;2023-02-15T17:08:19;8.63;;;7.10;;
9819;SDS011;4949;48.482;9.206;2023-02-15T17:13:32;13.77;;;9.13;;
9819;SDS011;4949;48.482;9.206;2023-02-15T17:18:33;10.20;;;8.60;;
9819;SDS011;4949;48.482;9.206;2023-02-15T17:23:41;10.20;;;9.13;;
9819;SDS011;4949;48.482;9.206;2023-02-15T17:28:50;14.47;;;9.50;;
9819;SDS011;4949;48.482;9.206;2023-02-15T17:33:56;11.00;;;7.80;;
9819;SDS011;4949;48.482;9.206;2023-02-15T17:44:26;9.30;;;8.13;;
9819;SDS011;4949;48.482;9.206;2023-02-15T17:49:28;10.60;;;8.37;;
9819;SDS011;4949;48.482;9.206;2023-02-15T17:54:33;9.33;;;8.43;;
9819;SDS011;4949;48.482;9.206;2023-02-15T17:59:53;10.97;;;9.20;;
9819;SDS011;4949;48.482;9.206;2023-02-15T18:05:15;14.33;;;10.57;;
9819;SDS011;4949;48.482;9.206;2023-02-15T18:10:34;15.30;;;11.20;;
9819;SDS011;4949;48.482;9.206;2023-02-15T18:15:54;51.20;;;39.97;;
9819;SDS011;4949;48.482;9.206;2023-02-15T18:20:55;43.50;;;38.30;;
9819;SDS011;4949;48.482;9.206;2023-02-15T18:25:56;14.43;;;12.63;;
9819;SDS011;4949;48.482;9.206;2023-02-15T18:30:57;21.40;;;14.43;;
9819;SDS011;4949;48.482;9.206;2023-02-15T18:35:59;13.17;;;11.87;;
9819;SDS011;4949;48.482;9.206;2023-02-15T18:41:05;15.97;;;14.30;;
9819;SDS011;4949;48.482;9.206;2023-02-15T18:46:06;16.87;;;12.30;;
9819;SDS011;4949;48.482;9.206;2023-02-15T18:51:20;18.77;;;13.43;;
9819;SDS011;4949;48.482;9.206;2023-02-15T18:56:23;20.20;;;15.17;;
9819;SDS011;4949;48.482;9.206;2023-02-15T19:01:24;16.47;;;13.50;;
9819;SDS011;4949;48.482;9.206;2023-02-15T19:06:27;15.90;;;13.43;;
9819;SDS011;4949;48.482;9.206;2023-02-15T19:11:31;19.30;;;16.07;;
9819;SDS011;4949;48.482;9.206;2023-02-15T19:16:34;20.70;;;15.07;;
9819;SDS011;4949;48.482;9.206;2023-02-15T19:21:36;16.20;;;14.50;;
9819;SDS011;4949;48.482;9.206;2023-02-15T19:26:39;17.57;;;15.00;;
9819;SDS011;4949;48.482;9.206;2023-02-15T19:31:45;18.00;;;14.03;;
9819;SDS011;4949;48.482;9.206;2023-02-15T19:36:46;16.70;;;14.60;;
9819;SDS011;4949;48.482;9.206;2023-02-15T19:41:50;20.63;;;16.37;;
9819;SDS011;4949;48.482;9.206;2023-02-15T19:46:54;17.10;;;14.87;;
9819;SDS011;4949;48.482;9.206;2023-02-15T19:51:57;17.10;;;15.17;;
9819;SDS011;4949;48.482;9.206;2023-02-15T19:57:01;17.67;;;14.40;;
9819;SDS011;4949;48.482;9.206;2023-02-15T20:02:04;18.67;;;15.10;;
9819;SDS011;4949;48.482;9.206;2023-02-15T20:07:07;15.63;;;13.67;;
9819;SDS011;4949;48.482;9.206;2023-02-15T20:12:25;15.80;;;14.20;;
9819;SDS011;4949;48.482;9.206;2023-02-15T20:17:28;14.80;;;12.80;;
9819;SDS011;4949;48.482;9.206;2023-02-15T20:22:29;17.40;;;11.23;;
9819;SDS011;4949;48.482;9.206;2023-02-15T20:27:29;11.80;;;10.10;;
9819;SDS011;4949;48.482;9.206;2023-02-15T20:32:36;12.60;;;11.33;;
9819;SDS011;4949;48.482;9.206;2023-02-15T20:37:37;12.43;;;9.93;;
9819;SDS011;4949;48.482;9.206;2023-02-15T20:42:37;12.10;;;8.90;;
9819;SDS011;4949;48.482;9.206;2023-02-15T20:47:38;10.20;;;9.20;;
9819;SDS011;4949;48.482;9.206;2023-02-15T20:52:43;15.37;;;11.00;;
9819;SDS011;4949;48.482;9.206;2023-02-15T20:57:45;11.20;;;9.53;;
9819;SDS011;4949;48.482;9.206;2023-02-15T21:02:47;14.20;;;11.10;;
9819;SDS011;4949;48.482;9.206;2023-02-15T21:07:51;13.40;;;9.77;;
9819;SDS011;4949;48.482;9.206;2023-02-15T21:12:55;10.23;;;8.90;;
9819;SDS011;4949;48.482;9.206;2023-02-15T21:18:04;10.40;;;9.30;;
9819;SDS011;4949;48.482;9.206;2023-02-15T21:23:14;12.60;;;10.40;;
9819;SDS011;4949;48.482;9.206;2023-02-15T21:28:18;12.83;;;11.33;;
9819;SDS011;4949;48.482;9.206;2023-02-15T21:33:24;12.33;;;10.97;;
9819;SDS011;4949;48.482;9.206;2023-02-15T21:38:26;13.57;;;10.80;;
9819;SDS011;4949;48.482;9.206;2023-02-15T21:43:31;13.83;;;11.90;;
9819;SDS011;4949;48.482;9.206;2023-02-15T21:48:50;13.73;;;12.27;;
9819;SDS011;4949;48.482;9.206;2023-02-15T21:53:51;16.07;;;13.27;;
9819;SDS011;4949;48.482;9.206;2023-02-15T21:58:52;19.23;;;13.23;;
9819;SDS011;4949;48.482;9.206;2023-02-15T22:03:56;16.43;;;14.73;;
9819;SDS011;4949;48.482;9.206;2023-02-15T22:09:00;17.63;;;15.50;;
9819;SDS011;4949;48.482;9.206;2023-02-15T22:14:01;28.73;;;16.27;;
9819;SDS011;4949;48.482;9.206;2023-02-15T22:19:03;19.30;;;16.33;;
9819;SDS011;4949;48.482;9.206;2023-02-15T22:24:03;20.07;;;16.37;;
9819;SDS011;4949;48.482;9.206;2023-02-15T22:29:05;16.60;;;13.83;;
9819;SDS011;4949;48.482;9.206;2023-02-15T22:34:15;16.80;;;14.50;;
9819;SDS011;4949;48.482;9.206;2023-02-15T22:39:24;15.70;;;13.33;;
9819;SDS011;4949;48.482;9.206;2023-02-15T22:44:28;17.60;;;14.90;;
9819;SDS011;4949;48.482;9.206;2023-02-15T22:49:32;18.27;;;14.60;;
9819;SDS011;4949;48.482;9.206;2023-02-15T22:54:35;21.83;;;15.40;;
9819;SDS011;4949;48.482;9.206;2023-02-15T22:59:36;16.67;;;14.90;;
9819;SDS011;4949;48.482;9.206;2023-02-15T23:04:36;19.07;;;15.53;;
9819;SDS011;4949;48.482;9.206;2023-02-15T23:09:37;16.67;;;14.40;;
9819;SDS011;4949;48.482;9.206;2023-02-15T23:14:40;19.83;;;14.47;;
9819;SDS011;4949;48.482;9.206;2023-02-15T23:19:41;16.97;;;14.00;;
9819;SDS011;4949;48.482;9.206;2023-02-15T23:24:42;18.40;;;13.67;;
9819;SDS011;4949;48.482;9.206;2023-02-15T23:29:50;17.27;;;13.90;;
9819;SDS011;4949;48.482;9.206;2023-02-15T23:34:51;18.47;;;14.90;;
9819;SDS011;4949;48.482;9.206;2023-02-15T23:39:51;15.30;;;13.63;;
9819;SDS011;4949;48.482;9.206;2023-02-15T23:45:20;17.10;;;14.70;;
9819;SDS011;4949;48.482;9.206;2023-02-15T23:50:28;18.10;;;14.30;;
9819;SDS011;4949;48.482;9.206;2023-02-15T23:55:33;20.30;;;13.87;;
